sensor_id;sensor_type;location;lat;lon;timestamp;temperature;humidity
4324;DHT22;2175;51.018;6.994;2023-03-17T00:54:09;8.70;99.90
4324;DHT22;2175;51.018;6.994;2023-03-17T00:57:31;8.70;99.90
4324;DHT22;2175;51.018;6.994;2023-03-17T01:04:39;8.70;99.90
4324;DHT22;2175;51.018;6.994;2023-03-17T01:08:06;8.70;99.90
4324;DHT22;2175;51.018;6.994;2023-03-17T01:12:05;8.70;99.90
4324;DHT22;2175;51.018;6.994;2023-03-17T01:14:46;8.70;99.90
4324;DHT22;2175;51.018;6.994;2023-03-17T01:17:47;8.70;99.90
4324;DHT22;2175;51.018;6.994;2023-03-17T01:30:45;8.50;99.90
4324;DHT22;2175;51.018;6.994;2023-03-17T01:33:12;8.40;99.90
4324;DHT22;2175;51.018;6.994;2023-03-17T01:35:42;8.50;99.90
4324;DHT22;2175;51.018;6.994;2023-03-17T01:38:08;8.40;1.00
4324;DHT22;2175;51.018;6.994;2023-03-17T01:40:40;8.40;1.00
4324;DHT22;2175;51.018;6.994;2023-03-17T01:52:14;8.40;99.90
4324;DHT22;2175;51.018;6.994;2023-03-17T01:54:55;8.50;99.90
4324;DHT22;2175;51.018;6.994;2023-03-17T01:57:30;8.40;99.90
4324;DHT22;2175;51.018;6.994;2023-03-17T02:00:03;8.40;99.90
4324;DHT22;2175;51.018;6.994;2023-03-17T02:02:35;8.40;99.90
4324;DHT22;2175;51.018;6.994;2023-03-17T02:05:04;8.40;99.90
4324;DHT22;2175;51.018;6.994;2023-03-17T02:07:31;8.50;99.90
4324;DHT22;2175;51.018;6.994;2023-03-17T02:09:59;8.50;99.90
4324;DHT22;2175;51.018;6.994;2023-03-17T02:12:26;8.40;99.90
4324;DHT22;2175;51.018;6.994;2023-03-17T02:14:53;8.50;99.90
4324;DHT22;2175;51.018;6.994;2023-03-17T02:17:20;8.50;99.90
4324;DHT22;2175;51.018;6.994;2023-03-17T02:19:46;8.50;99.90
4324;DHT22;2175;51.018;6.994;2023-03-17T02:22:12;8.50;99.90
4324;DHT22;2175;51.018;6.994;2023-03-17T02:24:42;8.40;99.90
4324;DHT22;2175;51.018;6.994;2023-03-17T02:27:21;8.40;99.90
4324;DHT22;2175;51.018;6.994;2023-03-17T02:29:50;8.40;99.90
4324;DHT22;2175;51.018;6.994;2023-03-17T02:32:18;8.50;99.90
4324;DHT22;2175;51.018;6.994;2023-03-17T02:34:44;8.40;99.90
4324;DHT22;2175;51.018;6.994;2023-03-17T02:37:10;8.40;99.90
4324;DHT22;2175;51.018;6.994;2023-03-17T02:39:36;8.40;99.90
4324;DHT22;2175;51.018;6.994;2023-03-17T02:42:02;8.50;99.90
4324;DHT22;2175;51.018;6.994;2023-03-17T02:44:36;8.50;99.90
4324;DHT22;2175;51.018;6.994;2023-03-17T02:47:03;8.50;99.90
4324;DHT22;2175;51.018;6.994;2023-03-17T02:49:29;8.50;99.90
4324;DHT22;2175;51.018;6.994;2023-03-17T02:51:56;8.50;99.90
4324;DHT22;2175;51.018;6.994;2023-03-17T02:54:22;8.50;99.90
4324;DHT22;2175;51.018;6.994;2023-03-17T02:56:47;8.50;99.90
4324;DHT22;2175;51.018;6.994;2023-03-17T02:59:35;8.40;99.90
4324;DHT22;2175;51.018;6.994;2023-03-17T03:02:01;8.40;99.90
4324;DHT22;2175;51.018;6.994;2023-03-17T03:04:27;8.20;99.90
4324;DHT22;2175;51.018;6.994;2023-03-17T03:06:53;8.30;99.90
4324;DHT22;2175;51.018;6.994;2023-03-17T03:09:19;8.30;99.90
4324;DHT22;2175;51.018;6.994;2023-03-17T03:11:46;8.30;99.90
4324;DHT22;2175;51.018;6.994;2023-03-17T03:14:11;8.20;99.90
4324;DHT22;2175;51.018;6.994;2023-03-17T03:16:38;8.20;99.90
4324;DHT22;2175;51.018;6.994;2023-03-17T03:19:04;8.20;99.90
4324;DHT22;2175;51.018;6.994;2023-03-17T03:21:30;8.10;99.90
4324;DHT22;2175;51.018;6.994;2023-03-17T03:24:04;8.20;99.90
4324;DHT22;2175;51.018;6.994;2023-03-17T03:26:30;8.20;99.90
4324;DHT22;2175;51.018;6.994;2023-03-17T03:29:04;8.20;99.90
4324;DHT22;2175;51.018;6.994;2023-03-17T03:31:29;8.10;1.00
4324;DHT22;2175;51.018;6.994;2023-03-17T03:34:01;8.10;99.90
4324;DHT22;2175;51.018;6.994;2023-03-17T03:36:26;8.00;1.00
4324;DHT22;2175;51.018;6.994;2023-03-17T03:38:52;7.90;99.90
4324;DHT22;2175;51.018;6.994;2023-03-17T03:41:18;7.90;1.00
4324;DHT22;2175;51.018;6.994;2023-03-17T03:43:44;8.00;1.00
4324;DHT22;2175;51.018;6.994;2023-03-17T03:46:09;8.00;99.90
4324;DHT22;2175;51.018;6.994;2023-03-17T03:48:35;8.00;99.90
4324;DHT22;2175;51.018;6.994;2023-03-17T03:51:01;8.00;99.90
4324;DHT22;2175;51.018;6.994;2023-03-17T03:53:56;8.00;99.90
4324;DHT22;2175;51.018;6.994;2023-03-17T03:56:21;8.10;99.90
4324;DHT22;2175;51.018;6.994;2023-03-17T03:58:47;8.00;99.90
4324;DHT22;2175;51.018;6.994;2023-03-17T04:01:14;8.00;99.90
4324;DHT22;2175;51.018;6.994;2023-03-17T04:03:40;7.90;99.90
4324;DHT22;2175;51.018;6.994;2023-03-17T04:06:06;7.90;99.90
4324;DHT22;2175;51.018;6.994;2023-03-17T04:08:34;8.00;99.90
4324;DHT22;2175;51.018;6.994;2023-03-17T04:11:00;8.00;99.90
4324;DHT22;2175;51.018;6.994;2023-03-17T04:13:26;8.00;99.90
4324;DHT22;2175;51.018;6.994;2023-03-17T04:15:52;7.90;1.00
4324;DHT22;2175;51.018;6.994;2023-03-17T04:18:17;7.90;99.90
4324;DHT22;2175;51.018;6.994;2023-03-17T04:20:43;7.90;1.00
4324;DHT22;2175;51.018;6.994;2023-03-17T04:23:09;7.90;99.90
4324;DHT22;2175;51.018;6.994;2023-03-17T04:25:35;8.00;99.90
4324;DHT22;2175;51.018;6.994;2023-03-17T04:28:01;8.00;99.90
4324;DHT22;2175;51.018;6.994;2023-03-17T04:30:27;7.90;99.90
4324;DHT22;2175;51.018;6.994;2023-03-17T04:32:53;7.90;99.90
4324;DHT22;2175;51.018;6.994;2023-03-17T04:35:33;7.90;99.90
4324;DHT22;2175;51.018;6.994;2023-03-17T04:37:58;7.80;1.00
4324;DHT22;2175;51.018;6.994;2023-03-17T04:40:24;7.80;99.90
4324;DHT22;2175;51.018;6.994;2023-03-17T04:42:52;7.80;99.90
4324;DHT22;2175;51.018;6.994;2023-03-17T04:45:18;7.80;99.90
4324;DHT22;2175;51.018;6.994;2023-03-17T04:47:49;7.80;99.90
4324;DHT22;2175;51.018;6.994;2023-03-17T04:50:14;7.80;99.90
4324;DHT22;2175;51.018;6.994;2023-03-17T04:52:51;7.70;99.90
4324;DHT22;2175;51.018;6.994;2023-03-17T04:55:17;7.80;99.90
4324;DHT22;2175;51.018;6.994;2023-03-17T04:57:43;7.70;1.00
4324;DHT22;2175;51.018;6.994;2023-03-17T05:00:09;7.70;99.90
4324;DHT22;2175;51.018;6.994;2023-03-17T05:02:37;7.70;1.00
4324;DHT22;2175;51.018;6.994;2023-03-17T05:05:03;7.70;99.90
4324;DHT22;2175;51.018;6.994;2023-03-17T05:07:29;7.70;1.00
4324;DHT22;2175;51.018;6.994;2023-03-17T05:09:55;7.60;1.00
4324;DHT22;2175;51.018;6.994;2023-03-17T05:12:22;7.60;1.00
4324;DHT22;2175;51.018;6.994;2023-03-17T05:14:47;7.60;1.00
4324;DHT22;2175;51.018;6.994;2023-03-17T05:17:13;7.70;1.00
4324;DHT22;2175;51.018;6.994;2023-03-17T05:19:39;7.80;1.00
4324;DHT22;2175;51.018;6.994;2023-03-17T05:22:05;7.80;99.90
4324;DHT22;2175;51.018;6.994;2023-03-17T05:24:30;7.80;99.90
4324;DHT22;2175;51.018;6.994;2023-03-17T05:26:56;7.80;99.90
4324;DHT22;2175;51.018;6.994;2023-03-17T05:29:22;7.80;1.00
4324;DHT22;2175;51.018;6.994;2023-03-17T05:31:47;7.70;99.90
4324;DHT22;2175;51.018;6.994;2023-03-17T05:34:13;7.70;1.00
4324;DHT22;2175;51.018;6.994;2023-03-17T05:36:41;7.70;1.00
4324;DHT22;2175;51.018;6.994;2023-03-17T05:39:06;7.70;99.90
4324;DHT22;2175;51.018;6.994;2023-03-17T05:41:33;7.70;99.90
4324;DHT22;2175;51.018;6.994;2023-03-17T05:43:58;7.70;99.90
4324;DHT22;2175;51.018;6.994;2023-03-17T05:46:24;7.70;1.00
4324;DHT22;2175;51.018;6.994;2023-03-17T05:48:51;7.70;1.00
4324;DHT22;2175;51.018;6.994;2023-03-17T05:51:17;7.70;99.90
4324;DHT22;2175;51.018;6.994;2023-03-17T05:53:43;7.70;99.90
4324;DHT22;2175;51.018;6.994;2023-03-17T05:56:08;7.70;99.90
4324;DHT22;2175;51.018;6.994;2023-03-17T05:58:35;7.70;1.00
4324;DHT22;2175;51.018;6.994;2023-03-17T06:01:01;7.70;1.00
4324;DHT22;2175;51.018;6.994;2023-03-17T06:03:26;7.70;1.00
4324;DHT22;2175;51.018;6.994;2023-03-17T06:05:52;7.70;1.00
4324;DHT22;2175;51.018;6.994;2023-03-17T06:08:18;7.80;1.00
4324;DHT22;2175;51.018;6.994;2023-03-17T06:10:43;7.80;99.90
4324;DHT22;2175;51.018;6.994;2023-03-17T06:13:09;7.90;99.90
4324;DHT22;2175;51.018;6.994;2023-03-17T06:15:38;7.90;99.90
4324;DHT22;2175;51.018;6.994;2023-03-17T06:18:03;8.00;99.90
4324;DHT22;2175;51.018;6.994;2023-03-17T06:20:31;8.00;99.90
4324;DHT22;2175;51.018;6.994;2023-03-17T06:22:57;7.90;1.00
4324;DHT22;2175;51.018;6.994;2023-03-17T06:25:23;8.00;99.90
4324;DHT22;2175;51.018;6.994;2023-03-17T06:27:48;8.10;99.90
4324;DHT22;2175;51.018;6.994;2023-03-17T06:30:19;8.10;99.90
4324;DHT22;2175;51.018;6.994;2023-03-17T06:32:46;8.20;99.90
4324;DHT22;2175;51.018;6.994;2023-03-17T06:35:11;8.20;99.90
4324;DHT22;2175;51.018;6.994;2023-03-17T06:37:37;8.30;99.90
4324;DHT22;2175;51.018;6.994;2023-03-17T06:40:04;8.40;99.90
4324;DHT22;2175;51.018;6.994;2023-03-17T06:42:33;8.40;99.90
4324;DHT22;2175;51.018;6.994;2023-03-17T06:44:59;8.50;99.90
4324;DHT22;2175;51.018;6.994;2023-03-17T06:47:25;8.50;99.90
4324;DHT22;2175;51.018;6.994;2023-03-17T06:49:50;8.60;99.90
4324;DHT22;2175;51.018;6.994;2023-03-17T06:52:16;8.70;99.90
4324;DHT22;2175;51.018;6.994;2023-03-17T06:54:42;8.70;99.90
4324;DHT22;2175;51.018;6.994;2023-03-17T06:57:07;8.80;99.90
4324;DHT22;2175;51.018;6.994;2023-03-17T06:59:34;8.80;99.90
4324;DHT22;2175;51.018;6.994;2023-03-17T07:01:59;8.90;99.90
4324;DHT22;2175;51.018;6.994;2023-03-17T07:04:25;8.90;99.90
4324;DHT22;2175;51.018;6.994;2023-03-17T07:06:51;9.00;99.90
4324;DHT22;2175;51.018;6.994;2023-03-17T07:09:17;9.00;99.90
4324;DHT22;2175;51.018;6.994;2023-03-17T07:11:44;9.00;99.90
4324;DHT22;2175;51.018;6.994;2023-03-17T07:14:10;9.10;99.90
4324;DHT22;2175;51.018;6.994;2023-03-17T07:16:36;9.10;99.90
4324;DHT22;2175;51.018;6.994;2023-03-17T07:19:02;9.20;99.90
4324;DHT22;2175;51.018;6.994;2023-03-17T07:21:29;9.20;99.90
4324;DHT22;2175;51.018;6.994;2023-03-17T07:23:54;9.30;99.90
4324;DHT22;2175;51.018;6.994;2023-03-17T07:26:20;9.30;99.90
4324;DHT22;2175;51.018;6.994;2023-03-17T07:28:46;9.40;99.90
4324;DHT22;2175;51.018;6.994;2023-03-17T07:31:12;9.40;99.90
4324;DHT22;2175;51.018;6.994;2023-03-17T07:33:39;9.50;99.90
4324;DHT22;2175;51.018;6.994;2023-03-17T17:40:23;13.90;1.00
4324;DHT22;2175;51.018;6.994;2023-03-17T17:42:50;13.90;99.90
4324;DHT22;2175;51.018;6.994;2023-03-17T17:45:16;14.00;74.80
4324;DHT22;2175;51.018;6.994;2023-03-17T17:47:42;14.00;1.00
4324;DHT22;2175;51.018;6.994;2023-03-17T17:50:11;13.90;59.10
4324;DHT22;2175;51.018;6.994;2023-03-17T17:52:40;13.90;99.90
4324;DHT22;2175;51.018;6.994;2023-03-17T17:55:06;13.80;99.90
4324;DHT22;2175;51.018;6.994;2023-03-17T17:57:35;13.80;99.90
4324;DHT22;2175;51.018;6.994;2023-03-17T18:00:01;13.80;1.00
4324;DHT22;2175;51.018;6.994;2023-03-17T18:02:46;13.70;99.90
4324;DHT22;2175;51.018;6.994;2023-03-17T18:05:21;13.70;99.90
4324;DHT22;2175;51.018;6.994;2023-03-17T18:10:56;13.70;99.90
4324;DHT22;2175;51.018;6.994;2023-03-17T18:13:59;13.60;99.90
4324;DHT22;2175;51.018;6.994;2023-03-17T18:16:49;13.50;99.90
4324;DHT22;2175;51.018;6.994;2023-03-17T18:19:51;13.50;99.90
4324;DHT22;2175;51.018;6.994;2023-03-17T18:22:20;13.50;99.90
4324;DHT22;2175;51.018;6.994;2023-03-17T18:24:48;13.60;99.90
4324;DHT22;2175;51.018;6.994;2023-03-17T18:27:15;13.50;99.90
4324;DHT22;2175;51.018;6.994;2023-03-17T18:29:43;13.40;1.00
4324;DHT22;2175;51.018;6.994;2023-03-17T18:32:10;13.40;1.00
4324;DHT22;2175;51.018;6.994;2023-03-17T18:34:42;13.40;1.00
4324;DHT22;2175;51.018;6.994;2023-03-17T18:37:10;13.30;1.00
4324;DHT22;2175;51.018;6.994;2023-03-17T18:39:39;13.20;1.00
4324;DHT22;2175;51.018;6.994;2023-03-17T18:42:05;13.10;1.00
4324;DHT22;2175;51.018;6.994;2023-03-17T18:44:32;13.10;1.00
4324;DHT22;2175;51.018;6.994;2023-03-17T18:46:57;13.10;1.00
4324;DHT22;2175;51.018;6.994;2023-03-17T18:49:23;13.20;1.00
4324;DHT22;2175;51.018;6.994;2023-03-17T18:51:52;13.20;1.00
4324;DHT22;2175;51.018;6.994;2023-03-17T18:54:18;13.10;1.00
4324;DHT22;2175;51.018;6.994;2023-03-17T18:56:43;13.20;1.00
4324;DHT22;2175;51.018;6.994;2023-03-17T18:59:09;13.10;1.00
4324;DHT22;2175;51.018;6.994;2023-03-17T19:01:35;13.10;1.00
4324;DHT22;2175;51.018;6.994;2023-03-17T19:04:01;13.10;1.00
4324;DHT22;2175;51.018;6.994;2023-03-17T19:06:28;13.10;1.00
4324;DHT22;2175;51.018;6.994;2023-03-17T19:08:54;13.10;1.00
4324;DHT22;2175;51.018;6.994;2023-03-17T19:11:21;13.10;1.00
4324;DHT22;2175;51.018;6.994;2023-03-17T19:13:47;13.10;1.00
4324;DHT22;2175;51.018;6.994;2023-03-17T19:16:13;13.10;1.00
4324;DHT22;2175;51.018;6.994;2023-03-17T19:18:39;13.00;1.00
4324;DHT22;2175;51.018;6.994;2023-03-17T19:21:06;13.00;1.00
4324;DHT22;2175;51.018;6.994;2023-03-17T19:23:33;13.10;1.00
4324;DHT22;2175;51.018;6.994;2023-03-17T19:26:00;13.10;99.90
4324;DHT22;2175;51.018;6.994;2023-03-17T19:28:26;13.00;1.00
4324;DHT22;2175;51.018;6.994;2023-03-17T19:30:52;13.00;1.00
4324;DHT22;2175;51.018;6.994;2023-03-17T19:33:20;13.00;1.00
4324;DHT22;2175;51.018;6.994;2023-03-17T19:35:52;13.00;99.90
4324;DHT22;2175;51.018;6.994;2023-03-17T19:38:18;13.00;1.00
4324;DHT22;2175;51.018;6.994;2023-03-17T19:40:44;13.00;99.90
4324;DHT22;2175;51.018;6.994;2023-03-17T19:43:10;13.00;1.00
4324;DHT22;2175;51.018;6.994;2023-03-17T19:45:35;12.90;1.00
4324;DHT22;2175;51.018;6.994;2023-03-17T19:48:01;12.90;1.00
4324;DHT22;2175;51.018;6.994;2023-03-17T19:50:27;12.80;1.00
4324;DHT22;2175;51.018;6.994;2023-03-17T19:52:53;12.80;1.00
4324;DHT22;2175;51.018;6.994;2023-03-17T19:55:19;12.70;1.00
4324;DHT22;2175;51.018;6.994;2023-03-17T20:01:33;12.70;1.00
4324;DHT22;2175;51.018;6.994;2023-03-17T20:04:06;12.70;1.00
4324;DHT22;2175;51.018;6.994;2023-03-17T20:07:07;12.70;1.00
4324;DHT22;2175;51.018;6.994;2023-03-17T20:09:35;12.70;1.00
4324;DHT22;2175;51.018;6.994;2023-03-17T20:13:04;12.70;1.00
4324;DHT22;2175;51.018;6.994;2023-03-17T20:15:30;12.60;1.00
4324;DHT22;2175;51.018;6.994;2023-03-17T20:18:24;12.70;1.00
4324;DHT22;2175;51.018;6.994;2023-03-17T20:21:20;12.60;1.00
4324;DHT22;2175;51.018;6.994;2023-03-17T20:25:06;12.60;1.00
4324;DHT22;2175;51.018;6.994;2023-03-17T20:28:17;12.60;1.00
4324;DHT22;2175;51.018;6.994;2023-03-17T20:31:18;12.50;1.00
4324;DHT22;2175;51.018;6.994;2023-03-17T20:38:12;12.30;1.00
4324;DHT22;2175;51.018;6.994;2023-03-17T20:41:50;12.40;1.00
4324;DHT22;2175;51.018;6.994;2023-03-17T20:44:53;12.30;35.30
4324;DHT22;2175;51.018;6.994;2023-03-17T20:47:42;12.10;91.20
4324;DHT22;2175;51.018;6.994;2023-03-17T20:51:13;11.90;99.90
4324;DHT22;2175;51.018;6.994;2023-03-17T20:54:01;11.70;99.90
4324;DHT22;2175;51.018;6.994;2023-03-17T20:56:28;11.70;99.90
4324;DHT22;2175;51.018;6.994;2023-03-17T20:58:54;11.60;99.90
4324;DHT22;2175;51.018;6.994;2023-03-17T21:01:33;11.60;99.90
4324;DHT22;2175;51.018;6.994;2023-03-17T21:04:15;11.60;99.90
4324;DHT22;2175;51.018;6.994;2023-03-17T21:07:49;11.50;99.90
4324;DHT22;2175;51.018;6.994;2023-03-17T21:10:43;11.30;99.90
4324;DHT22;2175;51.018;6.994;2023-03-17T21:13:32;11.20;99.90
4324;DHT22;2175;51.018;6.994;2023-03-17T21:16:30;11.10;99.90
4324;DHT22;2175;51.018;6.994;2023-03-17T21:18:58;11.10;99.90
4324;DHT22;2175;51.018;6.994;2023-03-17T21:21:26;10.90;99.90
4324;DHT22;2175;51.018;6.994;2023-03-17T21:23:58;10.90;99.90
4324;DHT22;2175;51.018;6.994;2023-03-17T21:26:49;10.90;99.90
4324;DHT22;2175;51.018;6.994;2023-03-17T21:29:17;10.90;99.90
4324;DHT22;2175;51.018;6.994;2023-03-17T21:31:52;10.90;99.90
4324;DHT22;2175;51.018;6.994;2023-03-17T21:34:22;10.90;99.90
4324;DHT22;2175;51.018;6.994;2023-03-17T21:37:08;10.90;99.90
4324;DHT22;2175;51.018;6.994;2023-03-17T21:39:33;10.90;99.90
4324;DHT22;2175;51.018;6.994;2023-03-17T21:42:09;10.90;99.90
4324;DHT22;2175;51.018;6.994;2023-03-17T21:48:09;10.70;99.90
4324;DHT22;2175;51.018;6.994;2023-03-17T21:50:36;10.70;99.90
4324;DHT22;2175;51.018;6.994;2023-03-17T21:53:18;10.60;99.90
4324;DHT22;2175;51.018;6.994;2023-03-17T21:55:48;10.60;99.90
4324;DHT22;2175;51.018;6.994;2023-03-17T21:58:15;10.60;99.90
4324;DHT22;2175;51.018;6.994;2023-03-17T22:00:50;10.60;99.90
4324;DHT22;2175;51.018;6.994;2023-03-17T22:03:19;10.70;99.90
4324;DHT22;2175;51.018;6.994;2023-03-17T22:05:48;10.60;99.90
4324;DHT22;2175;51.018;6.994;2023-03-17T22:08:26;10.70;99.90
4324;DHT22;2175;51.018;6.994;2023-03-17T22:10:57;10.70;99.90
4324;DHT22;2175;51.018;6.994;2023-03-17T22:13:25;10.70;99.90
4324;DHT22;2175;51.018;6.994;2023-03-17T22:15:51;10.70;99.90
4324;DHT22;2175;51.018;6.994;2023-03-17T22:18:26;10.70;99.90
4324;DHT22;2175;51.018;6.994;2023-03-17T22:20:54;10.60;99.90
4324;DHT22;2175;51.018;6.994;2023-03-17T22:23:21;10.60;99.90
4324;DHT22;2175;51.018;6.994;2023-03-17T22:26:07;10.70;99.90
4324;DHT22;2175;51.018;6.994;2023-03-17T22:29:08;10.60;99.90
4324;DHT22;2175;51.018;6.994;2023-03-17T22:31:34;10.60;99.90
4324;DHT22;2175;51.018;6.994;2023-03-17T22:34:00;10.70;99.90
4324;DHT22;2175;51.018;6.994;2023-03-17T22:36:27;10.60;99.90
4324;DHT22;2175;51.018;6.994;2023-03-17T22:38:52;10.60;99.90
4324;DHT22;2175;51.018;6.994;2023-03-17T22:41:21;10.60;99.90
4324;DHT22;2175;51.018;6.994;2023-03-17T22:43:47;10.50;99.90
4324;DHT22;2175;51.018;6.994;2023-03-17T22:46:14;10.60;99.90
4324;DHT22;2175;51.018;6.994;2023-03-17T22:48:40;10.60;99.90
4324;DHT22;2175;51.018;6.994;2023-03-17T22:51:08;10.60;99.90
4324;DHT22;2175;51.018;6.994;2023-03-17T22:53:35;10.50;99.90
4324;DHT22;2175;51.018;6.994;2023-03-17T22:56:01;10.50;99.90
4324;DHT22;2175;51.018;6.994;2023-03-17T22:58:28;10.50;99.90
4324;DHT22;2175;51.018;6.994;2023-03-17T23:00:54;10.50;99.90
4324;DHT22;2175;51.018;6.994;2023-03-17T23:03:21;10.50;99.90
4324;DHT22;2175;51.018;6.994;2023-03-17T23:05:48;10.50;99.90
4324;DHT22;2175;51.018;6.994;2023-03-17T23:08:15;10.50;99.90
4324;DHT22;2175;51.018;6.994;2023-03-17T23:10:42;10.50;99.90
4324;DHT22;2175;51.018;6.994;2023-03-17T23:13:08;10.50;99.90
4324;DHT22;2175;51.018;6.994;2023-03-17T23:15:34;10.60;99.90
4324;DHT22;2175;51.018;6.994;2023-03-17T23:18:00;10.50;99.90
4324;DHT22;2175;51.018;6.994;2023-03-17T23:20:26;10.50;99.90
4324;DHT22;2175;51.018;6.994;2023-03-17T23:22:52;10.50;99.90
4324;DHT22;2175;51.018;6.994;2023-03-17T23:25:19;10.50;99.90
4324;DHT22;2175;51.018;6.994;2023-03-17T23:27:46;10.50;99.90
4324;DHT22;2175;51.018;6.994;2023-03-17T23:30:14;10.50;99.90
4324;DHT22;2175;51.018;6.994;2023-03-17T23:32:40;10.60;99.90
4324;DHT22;2175;51.018;6.994;2023-03-17T23:35:08;10.50;99.90
4324;DHT22;2175;51.018;6.994;2023-03-17T23:37:34;10.50;99.90
4324;DHT22;2175;51.018;6.994;2023-03-17T23:40:00;10.50;99.90
4324;DHT22;2175;51.018;6.994;2023-03-17T23:42:27;10.50;99.90
4324;DHT22;2175;51.018;6.994;2023-03-17T23:45:01;10.50;99.90
4324;DHT22;2175;51.018;6.994;2023-03-17T23:47:29;10.60;99.90
4324;DHT22;2175;51.018;6.994;2023-03-17T23:49:55;10.60;99.90
4324;DHT22;2175;51.018;6.994;2023-03-17T23:52:21;10.60;99.90
4324;DHT22;2175;51.018;6.994;2023-03-17T23:54:47;10.60;99.90
4324;DHT22;2175;51.018;6.994;2023-03-17T23:57:13;10.60;99.90
4324;DHT22;2175;51.018;6.994;2023-03-17T23:59:38;10.50;99.90
